createdAt,value
2018-04-10T00:01:38.510Z,98370.20
2018-04-10T00:04:14.170Z,98365.33
2018-04-10T00:06:49.174Z,98365.63
2018-04-10T00:09:29.792Z,98364.95
2018-04-10T00:12:04.309Z,98361.69
2018-04-10T00:14:39.673Z,98355.27
2018-04-10T00:17:14.650Z,98362.64
2018-04-10T00:19:49.342Z,98365.36
2018-04-10T00:22:24.327Z,98363.75
2018-04-10T00:24:59.770Z,98370.59
2018-04-10T00:27:36.792Z,98362.44
2018-04-10T00:30:12.314Z,98366.32
2018-04-10T00:32:47.104Z,98370.95
2018-04-10T00:35:22.639Z,98369.63
2018-04-10T00:38:00.110Z,98373.14
2018-04-10T00:40:35.228Z,98370.57
2018-04-10T00:43:09.725Z,98372.29
2018-04-10T00:45:45.622Z,98367.98
2018-04-10T00:48:20.281Z,98370.76
2018-04-10T00:50:54.804Z,98368.63
2018-04-10T00:53:37.777Z,98370.06
2018-04-10T00:56:12.408Z,98362.81
2018-04-10T00:58:47.018Z,98364.63
2018-04-10T01:01:22.075Z,98363.66
2018-04-10T01:03:56.797Z,98358.72
2018-04-10T01:06:31.702Z,98357.09
2018-04-10T01:09:12.196Z,98354.99
2018-04-10T01:11:47.388Z,98351.93
2018-04-10T01:14:22.403Z,98353.63
2018-04-10T01:16:56.945Z,98347.84
2018-04-10T01:19:31.331Z,98343.97
2018-04-10T01:22:06.224Z,98347.96
2018-04-10T01:24:41.962Z,98357.53
2018-04-10T01:27:16.588Z,98358.05
2018-04-10T01:29:51.273Z,98356.86
2018-04-10T01:32:26.812Z,98358.67
2018-04-10T01:35:01.323Z,98353.30
2018-04-10T01:37:36.718Z,98354.27
2018-04-10T01:40:11.565Z,98354.72
2018-04-10T01:42:46.674Z,98355.58
2018-04-10T01:45:21.429Z,98353.33
2018-04-10T01:47:56.009Z,98353.72
2018-04-10T01:50:31.115Z,98348.11
2018-04-10T01:53:06.682Z,98341.34
2018-04-10T01:55:41.664Z,98341.09
2018-04-10T01:58:17.618Z,98339.64
2018-04-10T02:00:52.314Z,98332.95
2018-04-10T02:03:26.913Z,98333.62
2018-04-10T02:06:02.235Z,98329.97
2018-04-10T02:08:36.960Z,98324.41
2018-04-10T02:11:13.413Z,98329.85
2018-04-10T02:13:48.712Z,98327.90
2018-04-10T02:16:25.500Z,98331.87
2018-04-10T02:19:00.327Z,98323.94
2018-04-10T02:21:37.861Z,98328.28
2018-04-10T02:24:12.748Z,98336.48
2018-04-10T02:26:47.353Z,98340.72
2018-04-10T02:29:22.441Z,98337.70
2018-04-10T02:31:57.097Z,98337.23
2018-04-10T02:34:34.099Z,98332.02
2018-04-10T02:37:10.148Z,98328.30
2018-04-10T02:39:44.902Z,98337.83
2018-04-10T02:42:19.380Z,98344.23
2018-04-10T02:44:54.244Z,98347.92
2018-04-10T02:47:28.751Z,98349.17
2018-04-10T02:50:03.392Z,98349.38
2018-04-10T02:52:38.160Z,98347.75
2018-04-10T02:55:13.789Z,98350.05
2018-04-10T02:57:48.408Z,98347.52
2018-04-10T03:00:22.929Z,98345.95
2018-04-10T03:02:58.228Z,98346.03
2018-04-10T03:05:32.792Z,98345.44
2018-04-10T03:08:07.724Z,98347.30
2018-04-10T03:10:42.963Z,98356.88
2018-04-10T03:13:18.863Z,98354.55
2018-04-10T03:15:54.656Z,98352.90
2018-04-10T03:18:36.692Z,98358.70
2018-04-10T03:21:11.600Z,98363.83
2018-04-10T03:23:46.641Z,98359.77
2018-04-10T03:26:21.436Z,98364.30
2018-04-10T03:29:05.185Z,98356.88
2018-04-10T03:31:40.856Z,98354.45
2018-04-10T03:34:15.690Z,98354.03
2018-04-10T03:36:50.752Z,98351.31
2018-04-10T03:39:25.731Z,98360.47
2018-04-10T03:42:02.021Z,98356.20
2018-04-10T03:44:38.240Z,98345.85
2018-04-10T03:47:13.044Z,98344.83
2018-04-10T03:49:48.158Z,98348.37
2018-04-10T03:52:23.207Z,98340.16
2018-04-10T03:54:59.360Z,98345.56
2018-04-10T03:57:35.999Z,98338.75
2018-04-10T04:00:10.560Z,98345.80
2018-04-10T04:02:46.172Z,98347.13
2018-04-10T04:05:21.173Z,98346.48
2018-04-10T04:08:00.700Z,98346.84
2018-04-10T04:10:35.686Z,98351.80
2018-04-10T04:13:10.748Z,98348.44
2018-04-10T04:15:46.144Z,98342.66
2018-04-10T04:18:29.550Z,98347.94
2018-04-10T04:23:20.514Z,98355.02
2018-04-10T04:25:57.157Z,98342.47
2018-04-10T04:28:32.242Z,98349.55
2018-04-10T04:31:08.198Z,98343.12
2018-04-10T04:33:43.261Z,98335.61
2018-04-10T04:36:18.770Z,98332.34
2018-04-10T04:38:54.904Z,98333.88
2018-04-10T04:41:30.644Z,98332.77
2018-04-10T04:44:05.366Z,98333.59
2018-04-10T04:46:40.513Z,98338.92
2018-04-10T04:49:15.847Z,98337.96
2018-04-10T04:51:52.115Z,98341.36
2018-04-10T04:54:27.370Z,98339.14
2018-04-10T04:57:03.386Z,98339.42
2018-04-10T04:59:38.269Z,98342.55
2018-04-10T05:02:14.139Z,98329.20
2018-04-10T05:04:48.966Z,98347.30
2018-04-10T05:07:24.377Z,98351.27
2018-04-10T05:09:59.908Z,98358.23
2018-04-10T05:12:44.951Z,98363.63
2018-04-10T05:15:20.043Z,98365.27
2018-04-10T05:17:59.088Z,98371.28
2018-04-10T05:20:38.501Z,98369.17
2018-04-10T05:23:19.626Z,98368.64
2018-04-10T05:25:55.358Z,98377.28
2018-04-10T05:28:31.895Z,98379.98
2018-04-10T05:31:08.563Z,98371.25
2018-04-10T05:33:44.804Z,98378.56
2018-04-10T05:36:20.244Z,98383.75
2018-04-10T05:38:55.784Z,98383.39
2018-04-10T05:41:30.574Z,98384.58
2018-04-10T05:44:06.302Z,98385.81
2018-04-10T05:46:42.879Z,98390.16
2018-04-10T05:49:21.644Z,98393.70
2018-04-10T05:52:00.733Z,98389.11
2018-04-10T05:54:41.704Z,98384.65
2018-04-10T05:57:17.911Z,98381.58
2018-04-10T05:59:54.400Z,98379.49
2018-04-10T06:02:33.479Z,98379.47
2018-04-10T06:05:11.876Z,98382.70
2018-04-10T06:07:47.029Z,98380.53
2018-04-10T13:36:16.206Z,98262.50
2018-04-10T13:38:53.732Z,98271.66
2018-04-10T13:41:28.611Z,98274.11
2018-04-10T13:44:05.251Z,98270.02
2018-04-10T13:46:42.050Z,98259.86
2018-04-10T13:49:19.194Z,98265.59
2018-04-10T13:51:54.675Z,98282.73
2018-04-10T13:54:28.456Z,98273.21
2018-04-10T13:57:02.869Z,98279.17
2018-04-10T13:59:39.204Z,98265.70
2018-04-10T14:02:19.233Z,98268.59
2018-04-10T14:05:02.425Z,98262.86
2018-04-10T14:07:42.726Z,98279.05
2018-04-10T14:12:51.310Z,98267.75
2018-04-10T14:15:25.529Z,98273.48
2018-04-10T14:18:00.049Z,98272.70
2018-04-10T14:20:34.543Z,98270.84
2018-04-10T14:23:11.768Z,98271.36
2018-04-10T14:25:49.081Z,98266.86
2018-04-10T14:28:24.681Z,98270.77
2018-04-10T14:30:59.467Z,98277.84
2018-04-10T14:33:33.332Z,98266.23
2018-04-10T14:36:07.098Z,98273.73
2018-04-10T14:38:42.690Z,98274.86
2018-04-10T14:41:17.016Z,98268.40
2018-04-10T14:43:59.139Z,98266.74
2018-04-10T14:46:35.008Z,98266.42
2018-04-10T14:49:10.790Z,98269.59
2018-04-10T14:51:44.967Z,98259.81
2018-04-10T14:54:22.212Z,98268.85
2018-04-10T14:56:57.856Z,98269.38
2018-04-10T14:59:33.341Z,98268.16
2018-04-10T15:02:10.513Z,98274.97
2018-04-10T15:04:45.722Z,98269.72
2018-04-10T15:07:19.220Z,98269.19
2018-04-10T15:09:54.295Z,98274.53
2018-04-10T15:12:29.777Z,98269.19
2018-04-10T15:15:03.836Z,98259.23
2018-04-10T15:17:38.151Z,98256.64
2018-04-10T15:20:12.917Z,98259.02
2018-04-10T15:22:47.915Z,98266.10
2018-04-10T15:25:23.473Z,98263.14
2018-04-10T15:27:59.471Z,98258.20
2018-04-10T15:30:37.546Z,98259.23
2018-04-10T15:33:12.614Z,98262.30
2018-04-10T15:35:48.368Z,98254.92
2018-04-10T15:38:21.794Z,98251.12
2018-04-10T15:40:55.929Z,98247.92
2018-04-10T15:43:31.367Z,98254.72
2018-04-10T15:46:05.171Z,98254.70
2018-04-10T15:48:38.946Z,98257.06
2018-04-10T15:51:13.572Z,98251.09
2018-04-10T15:53:47.916Z,98250.60
2018-04-10T15:56:22.119Z,98248.23
2018-04-10T15:58:55.808Z,98251.91
2018-04-10T16:01:31.021Z,98258.31
2018-04-10T16:04:04.956Z,98259.95
2018-04-10T16:06:38.609Z,98263.09
2018-04-10T16:09:15.700Z,98261.77
2018-04-10T16:11:49.738Z,98262.69
2018-04-10T16:14:23.729Z,98274.39
2018-04-10T16:16:57.860Z,98267.47
2018-04-10T16:19:32.653Z,98273.29
2018-04-10T16:22:06.660Z,98266.22
2018-04-10T16:24:40.286Z,98265.03
2018-04-10T16:27:15.323Z,98261.78
2018-04-10T16:29:51.238Z,98265.50
2018-04-10T16:32:27.657Z,98261.83
2018-04-10T16:35:02.481Z,98262.40
2018-04-10T16:37:36.616Z,98264.03
2018-04-10T16:40:10.787Z,98267.89
2018-04-10T16:42:44.547Z,98268.88
2018-04-10T16:45:18.708Z,98266.10
2018-04-10T16:48:00.624Z,98270.25
2018-04-10T16:50:35.370Z,98272.73
2018-04-10T16:53:08.770Z,98271.42
2018-04-10T16:55:43.762Z,98270.63
2018-04-10T16:58:18.447Z,98268.88
2018-04-10T17:00:52.237Z,98274.78
2018-04-10T17:03:25.666Z,98271.29
2018-04-10T17:05:59.344Z,98275.80
2018-04-10T17:08:32.969Z,98276.66
2018-04-10T17:11:06.437Z,98277.45
2018-04-10T17:13:41.558Z,98275.34
2018-04-10T17:16:15.486Z,98282.03
2018-04-10T17:18:48.898Z,98282.66
2018-04-10T17:21:22.421Z,98279.19
2018-04-10T17:23:55.861Z,98284.02
2018-04-10T17:26:29.473Z,98297.06
2018-04-10T17:29:03.697Z,98291.03
2018-04-10T17:31:37.631Z,98292.42
2018-04-10T17:34:11.116Z,98284.91
2018-04-10T17:36:44.568Z,98287.10
2018-04-10T17:39:18.157Z,98298.86
2018-04-10T17:41:51.606Z,98299.66
2018-04-10T17:44:25.181Z,98299.27
2018-04-10T17:46:58.752Z,98311.08
2018-04-10T17:49:32.156Z,98317.09
2018-04-10T17:52:05.576Z,98310.89
2018-04-10T17:54:38.967Z,98309.67
2018-04-10T17:57:12.305Z,98318.22
2018-04-10T18:02:19.133Z,98325.54
2018-04-10T18:07:57.116Z,98335.92
2018-04-10T18:10:36.372Z,98341.53
2018-04-10T18:13:12.239Z,98345.36
2018-04-10T18:15:49.277Z,98351.66
2018-04-10T18:18:42.212Z,98354.70
2018-04-10T18:24:11.096Z,98368.59
2018-04-10T18:26:55.770Z,98367.29
2018-04-10T18:29:37.108Z,98384.78
2018-04-10T18:32:14.918Z,98391.06
2018-04-10T18:37:56.636Z,98403.39
2018-04-10T18:40:35.796Z,98405.89
2018-04-10T18:43:24.044Z,98415.16
2018-04-10T18:46:01.489Z,98416.27
2018-04-10T18:48:37.741Z,98421.11
2018-04-10T18:51:16.915Z,98419.00
2018-04-10T18:53:54.341Z,98420.71
2018-04-10T18:56:29.921Z,98419.31
2018-04-10T18:59:16.242Z,98431.66
2018-04-10T19:01:58.042Z,98440.92
2018-04-10T19:04:35.672Z,98446.09
2018-04-10T19:07:16.374Z,98438.37
2018-04-10T19:09:54.019Z,98447.34
2018-04-10T19:12:54.816Z,98448.16
2018-04-10T19:15:45.712Z,98447.72
2018-04-10T19:18:34.094Z,98446.14
2018-04-10T19:21:17.109Z,98447.82
2018-04-10T19:26:39.486Z,98452.44
2018-04-10T19:29:29.295Z,98444.17
2018-04-10T19:32:17.734Z,98440.63
2018-04-10T19:34:54.778Z,98449.55
2018-04-10T19:37:30.073Z,98453.19
2018-04-10T19:40:08.850Z,98455.83
2018-04-10T19:42:46.113Z,98449.48
2018-04-10T19:45:23.591Z,98459.47
2018-04-10T19:48:01.871Z,98460.31
2018-04-10T19:50:41.359Z,98471.89
2018-04-10T19:53:25.055Z,98458.66
2018-04-10T19:55:58.953Z,98462.28
2018-04-10T19:58:32.593Z,98479.47
2018-04-10T20:01:10.029Z,98471.75
2018-04-10T20:03:43.649Z,98472.57
2018-04-10T20:06:17.166Z,98481.99
2018-04-10T20:08:50.479Z,98479.39
2018-04-10T20:11:24.891Z,98478.46
2018-04-10T20:13:58.362Z,98482.36
2018-04-10T20:16:31.748Z,98483.36
2018-04-10T20:19:05.337Z,98484.48
2018-04-10T20:21:38.829Z,98487.05
2018-04-10T20:24:12.148Z,98490.11
2018-04-10T20:26:45.536Z,98500.81
2018-04-10T20:29:19.021Z,98498.84
2018-04-10T20:31:52.532Z,98492.27
2018-04-10T20:34:26.182Z,98491.88
2018-04-10T20:36:59.493Z,98491.36
2018-04-10T20:39:33.857Z,98499.64
2018-04-10T20:42:07.455Z,98498.45
2018-04-10T20:44:44.507Z,98501.83
2018-04-10T20:47:18.004Z,98513.06
2018-04-10T20:49:51.632Z,98510.47
2018-04-10T20:52:25.222Z,98520.94
2018-04-10T20:54:58.479Z,98526.59
2018-04-10T20:57:32.695Z,98525.33
2018-04-10T21:00:06.271Z,98525.44
2018-04-10T21:02:39.897Z,98535.54
2018-04-10T21:05:13.066Z,98541.67
2018-04-10T21:07:46.696Z,98542.12
2018-04-10T21:10:20.184Z,98544.59
2018-04-10T21:12:53.391Z,98542.63
2018-04-10T21:15:26.890Z,98547.30
2018-04-10T21:18:00.277Z,98542.98
2018-04-10T21:20:33.401Z,98546.33
2018-04-10T21:23:06.804Z,98546.31
2018-04-10T21:25:40.178Z,98545.92
2018-04-10T21:28:13.512Z,98543.61
2018-04-10T21:30:46.980Z,98542.14
2018-04-10T21:33:20.153Z,98543.07
2018-04-10T21:35:53.701Z,98547.61
2018-04-10T21:38:27.061Z,98548.72
2018-04-10T21:41:00.276Z,98549.70
2018-04-10T21:43:34.802Z,98553.56
2018-04-10T21:46:08.072Z,98558.81
2018-04-10T21:48:41.328Z,98558.45
2018-04-10T21:51:15.169Z,98556.05
2018-04-10T21:53:48.648Z,98557.39
2018-04-10T21:56:21.884Z,98560.61
2018-04-10T21:58:55.646Z,98556.11
2018-04-10T22:01:29.153Z,98557.61
2018-04-10T22:04:02.418Z,98558.50
2018-04-10T22:06:36.464Z,98556.48
2018-04-10T22:09:09.968Z,98558.13
2018-04-10T22:11:45.267Z,98562.19
2018-04-10T22:14:18.973Z,98567.00
2018-04-10T22:16:52.590Z,98564.97
2018-04-10T22:19:25.990Z,98565.14
2018-04-10T22:21:59.288Z,98562.66
2018-04-10T22:24:32.621Z,98563.43
2018-04-10T22:27:06.350Z,98564.90
2018-04-10T22:29:39.652Z,98560.75
2018-04-10T22:32:13.323Z,98567.39
2018-04-10T22:34:46.587Z,98567.42
2018-04-10T22:37:19.937Z,98565.52
2018-04-10T22:39:56.820Z,98566.23
2018-04-10T22:42:32.698Z,98564.14
2018-04-10T22:45:11.664Z,98570.13
2018-04-10T22:47:45.711Z,98569.93
2018-04-10T22:50:19.613Z,98569.89
2018-04-10T22:52:52.898Z,98564.91
2018-04-10T22:55:26.301Z,98569.80
2018-04-10T22:57:59.921Z,98568.23
2018-04-10T23:00:33.895Z,98571.22
2018-04-10T23:03:06.854Z,98572.83
2018-04-10T23:05:40.858Z,98567.74
2018-04-10T23:08:14.230Z,98566.63
2018-04-10T23:10:47.604Z,98567.78
2018-04-10T23:13:21.970Z,98571.31
2018-04-10T23:15:55.652Z,98563.66
2018-04-10T23:18:29.034Z,98565.16
2018-04-10T23:21:02.560Z,98563.44
2018-04-10T23:23:35.885Z,98565.04
2018-04-10T23:26:09.181Z,98563.34
2018-04-10T23:28:43.094Z,98574.05
2018-04-10T23:31:17.406Z,98574.91
2018-04-10T23:33:50.884Z,98569.59
2018-04-10T23:36:24.390Z,98581.55
2018-04-10T23:38:57.614Z,98581.42
2018-04-10T23:41:31.137Z,98592.48
2018-04-10T23:44:04.620Z,98588.28
2018-04-10T23:46:37.944Z,98585.66
2018-04-10T23:49:11.390Z,98593.90
2018-04-10T23:51:44.786Z,98593.22
2018-04-10T23:54:18.122Z,98599.08
2018-04-10T23:56:51.464Z,98597.17
2018-04-10T23:59:25.033Z,98599.59
